createdAt,value
2022-08-28T00:01:25.411Z,16.93
2022-08-28T00:03:55.040Z,16.89
2022-08-28T00:06:23.570Z,16.82
2022-08-28T00:08:52.226Z,16.79
2022-08-28T00:11:22.379Z,16.77
2022-08-28T00:13:51.489Z,16.78
2022-08-28T00:16:21.580Z,16.73
2022-08-28T00:18:51.566Z,16.74
2022-08-28T00:21:20.287Z,16.74
2022-08-28T00:23:50.474Z,16.75
2022-08-28T00:26:33.116Z,16.72
2022-08-28T00:29:06.387Z,16.64
2022-08-28T00:31:37.629Z,16.61
2022-08-28T00:34:06.710Z,16.56
2022-08-28T00:36:35.460Z,16.57
2022-08-28T00:39:05.565Z,16.54
2022-08-28T00:41:39.027Z,16.52
2022-08-28T00:44:16.621Z,16.47
2022-08-28T00:46:48.734Z,16.41
2022-08-28T00:49:20.756Z,16.37
2022-08-28T00:52:11.870Z,16.29
2022-08-28T00:54:58.813Z,16.21
2022-08-28T00:57:32.271Z,16.21
2022-08-28T01:00:03.499Z,16.20
2022-08-28T01:02:32.245Z,16.19
2022-08-28T01:05:00.878Z,16.20
2022-08-28T01:07:29.935Z,16.21
2022-08-28T01:09:59.520Z,16.26
2022-08-28T01:12:31.563Z,16.25
2022-08-28T01:15:01.500Z,16.24
2022-08-28T01:17:43.041Z,16.20
2022-08-28T01:20:23.288Z,16.17
2022-08-28T01:23:00.577Z,16.15
2022-08-28T01:25:35.000Z,16.11
2022-08-28T01:28:08.895Z,16.02
2022-08-28T01:30:38.024Z,15.94
2022-08-28T01:33:07.156Z,15.91
2022-08-28T01:35:39.843Z,15.91
2022-08-28T01:38:08.745Z,15.88
2022-08-28T01:40:45.460Z,15.85
2022-08-28T01:43:22.187Z,15.79
2022-08-28T01:45:53.412Z,15.75
2022-08-28T01:48:23.665Z,15.73
2022-08-28T01:50:52.753Z,15.69
2022-08-28T01:53:24.922Z,15.66
2022-08-28T01:55:56.839Z,15.62
2022-08-28T01:58:26.661Z,15.57
2022-08-28T02:00:57.197Z,15.52
2022-08-28T02:03:25.919Z,15.49
2022-08-28T02:05:54.674Z,15.46
2022-08-28T02:08:23.539Z,15.43
2022-08-28T02:10:52.981Z,15.42
2022-08-28T02:13:26.209Z,15.38
2022-08-28T02:15:55.142Z,15.38
2022-08-28T02:18:24.805Z,15.40
2022-08-28T02:20:53.536Z,15.33
2022-08-28T02:23:23.061Z,15.33
2022-08-28T02:25:51.798Z,15.35
2022-08-28T02:28:20.230Z,15.37
2022-08-28T02:30:50.451Z,15.37
2022-08-28T02:33:19.232Z,15.37
2022-08-28T02:35:47.967Z,15.33
2022-08-28T02:38:17.388Z,15.29
2022-08-28T02:40:47.701Z,15.24
2022-08-28T02:43:16.486Z,15.22
2022-08-28T02:45:45.502Z,15.20
2022-08-28T02:48:18.351Z,15.17
2022-08-28T02:50:47.435Z,15.15
2022-08-28T02:53:16.191Z,15.10
2022-08-28T02:55:45.214Z,15.04
2022-08-28T02:58:14.045Z,14.98
2022-08-28T03:00:44.466Z,14.99
2022-08-28T03:03:13.190Z,15.02
2022-08-28T03:05:43.441Z,15.04
2022-08-28T03:08:12.367Z,15.03
2022-08-28T03:10:42.191Z,15.03
2022-08-28T03:13:11.361Z,14.99
2022-08-28T03:15:55.835Z,14.93
2022-08-28T03:18:25.568Z,14.87
2022-08-28T03:20:56.123Z,14.83
2022-08-28T03:23:26.656Z,14.82
2022-08-28T03:25:57.473Z,14.81
2022-08-28T03:28:30.425Z,14.84
2022-08-28T03:31:00.001Z,14.82
2022-08-28T03:33:29.165Z,14.77
2022-08-28T03:35:59.992Z,14.70
2022-08-28T03:38:34.110Z,14.70
2022-08-28T03:41:03.530Z,14.77
2022-08-28T03:43:32.529Z,14.74
2022-08-28T03:46:03.307Z,14.69
2022-08-28T03:48:36.535Z,14.66
2022-08-28T03:51:10.415Z,14.60
2022-08-28T03:53:39.684Z,14.61
2022-08-28T03:56:12.311Z,14.60
2022-08-28T03:58:42.301Z,14.63
2022-08-28T04:01:11.376Z,14.66
2022-08-28T04:03:40.221Z,14.66
2022-08-28T04:06:10.718Z,14.67
2022-08-28T04:08:40.387Z,14.66
2022-08-28T04:11:10.302Z,14.64
2022-08-28T04:13:39.051Z,14.62
2022-08-28T04:16:11.422Z,14.63
2022-08-28T04:18:42.710Z,14.66
2022-08-28T04:21:18.601Z,14.66
2022-08-28T04:23:49.323Z,14.69
2022-08-28T04:26:23.405Z,14.73
2022-08-28T04:28:53.622Z,14.77
2022-08-28T04:31:31.658Z,14.81
2022-08-28T04:34:02.592Z,14.85
2022-08-28T04:36:33.971Z,14.92
2022-08-28T04:39:06.082Z,14.95
2022-08-28T04:41:37.457Z,15.01
2022-08-28T04:44:07.621Z,15.12
2022-08-28T04:46:36.638Z,15.22
2022-08-28T04:49:07.336Z,15.29
2022-08-28T04:51:41.978Z,15.38
2022-08-28T04:54:13.415Z,15.43
2022-08-28T04:56:43.260Z,15.48
2022-08-28T04:59:13.261Z,15.55
2022-08-28T05:01:43.189Z,15.60
2022-08-28T05:04:13.714Z,15.66
2022-08-28T05:06:46.572Z,15.74
2022-08-28T05:09:17.731Z,15.84
2022-08-28T05:11:47.340Z,15.96
2022-08-28T05:14:16.865Z,16.10
2022-08-28T05:16:47.927Z,16.21
2022-08-28T05:19:17.795Z,16.30
2022-08-28T05:21:48.476Z,16.37
2022-08-28T05:24:20.054Z,16.47
2022-08-28T05:26:49.131Z,16.61
2022-08-28T05:29:18.466Z,16.74
2022-08-28T05:31:48.700Z,16.85
2022-08-28T05:34:18.517Z,16.95
2022-08-28T05:36:49.104Z,17.09
2022-08-28T05:39:18.981Z,17.23
2022-08-28T05:41:48.346Z,17.38
2022-08-28T05:44:18.831Z,17.53
2022-08-28T05:46:48.985Z,17.71
2022-08-28T05:49:19.604Z,17.91
2022-08-28T05:51:51.181Z,18.12
2022-08-28T05:54:19.901Z,18.33
2022-08-28T05:56:49.490Z,18.49
2022-08-28T05:59:18.884Z,18.67
2022-08-28T06:01:49.281Z,18.85
2022-08-28T06:04:23.888Z,19.03
2022-08-28T06:06:54.672Z,19.22
2022-08-28T06:09:29.321Z,19.41
2022-08-28T06:12:00.036Z,19.53
2022-08-28T06:14:30.009Z,19.71
2022-08-28T06:16:59.893Z,19.88
2022-08-28T06:19:31.107Z,20.12
2022-08-28T06:22:06.905Z,20.36
2022-08-28T06:24:36.868Z,20.53
2022-08-28T06:27:06.011Z,20.70
2022-08-28T06:29:34.715Z,20.91
2022-08-28T06:32:05.672Z,21.09
2022-08-28T06:34:34.581Z,21.25
2022-08-28T06:37:04.713Z,21.42
2022-08-28T06:39:33.405Z,21.55
2022-08-28T06:42:02.318Z,21.75
2022-08-28T06:44:32.467Z,21.95
2022-08-28T06:47:02.454Z,22.17
2022-08-28T06:49:31.754Z,22.39
2022-08-28T06:52:00.439Z,22.59
2022-08-28T06:54:31.230Z,22.80
2022-08-28T06:57:00.171Z,23.04
2022-08-28T06:59:29.360Z,23.18
2022-08-28T07:01:58.213Z,23.32
2022-08-28T07:04:27.796Z,23.48
2022-08-28T07:06:56.564Z,23.60
2022-08-28T07:09:26.466Z,23.71
2022-08-28T07:11:56.352Z,23.85
2022-08-28T07:14:26.863Z,23.96
2022-08-28T07:16:56.142Z,24.05
2022-08-28T07:19:25.566Z,24.24
2022-08-28T07:21:54.165Z,24.40
2022-08-28T07:24:23.634Z,24.61
2022-08-28T07:26:52.417Z,24.84
2022-08-28T07:29:23.149Z,24.99
2022-08-28T07:31:54.191Z,25.14
2022-08-28T07:34:26.969Z,25.31
2022-08-28T07:37:03.871Z,25.38
2022-08-28T07:39:32.777Z,25.46
2022-08-28T07:42:02.221Z,25.54
2022-08-28T07:44:49.937Z,25.70
2022-08-28T07:47:20.570Z,25.86
2022-08-28T07:49:49.161Z,25.98
2022-08-28T07:52:19.528Z,26.14
2022-08-28T07:54:48.202Z,26.33
2022-08-28T07:57:17.936Z,26.52
2022-08-28T07:59:47.986Z,26.71
2022-08-28T08:02:17.305Z,26.74
2022-08-28T08:04:47.502Z,26.81
2022-08-28T08:07:18.021Z,26.97
2022-08-28T08:09:47.482Z,27.11
2022-08-28T08:12:18.656Z,27.25
2022-08-28T08:14:49.791Z,27.43
2022-08-28T08:17:19.363Z,27.58
2022-08-28T08:19:48.763Z,27.71
2022-08-28T08:22:18.597Z,27.80
2022-08-28T08:24:47.257Z,27.71
2022-08-28T08:27:16.772Z,27.66
2022-08-28T08:29:45.809Z,27.65
2022-08-28T08:32:17.511Z,27.84
2022-08-28T08:34:50.392Z,28.03
2022-08-28T08:37:19.157Z,28.05
2022-08-28T08:39:47.742Z,27.97
2022-08-28T08:42:24.255Z,27.92
2022-08-28T08:44:55.261Z,27.83
2022-08-28T08:47:36.644Z,27.84
2022-08-28T08:50:08.450Z,27.96
2022-08-28T08:52:46.126Z,28.16
2022-08-28T08:55:25.853Z,28.40
2022-08-28T08:58:00.727Z,28.60
2022-08-28T09:00:31.579Z,28.89
2022-08-28T09:03:07.082Z,29.27
2022-08-28T09:05:48.111Z,29.49
2022-08-28T09:08:41.006Z,29.68
2022-08-28T09:11:22.251Z,29.71
2022-08-28T09:13:59.822Z,29.88
2022-08-28T09:16:32.716Z,29.98
2022-08-28T09:19:03.087Z,30.10
2022-08-28T09:21:40.601Z,30.17
2022-08-28T09:24:17.983Z,30.27
2022-08-28T09:26:53.676Z,30.37
2022-08-28T09:29:28.821Z,30.47
2022-08-28T09:31:57.886Z,30.71
2022-08-28T09:34:35.498Z,30.83
2022-08-28T09:37:09.733Z,31.01
2022-08-28T09:39:46.627Z,31.19
2022-08-28T09:42:40.617Z,31.51
2022-08-28T09:45:18.614Z,31.76
2022-08-28T09:47:49.910Z,31.91
2022-08-28T09:50:37.719Z,31.76
2022-08-28T09:53:22.548Z,31.55
2022-08-28T09:55:59.950Z,31.66
2022-08-28T09:58:35.623Z,31.71
2022-08-28T10:01:12.956Z,31.80
2022-08-28T10:03:52.951Z,31.91
2022-08-28T10:06:27.620Z,32.29
2022-08-28T10:09:06.425Z,32.44
2022-08-28T10:11:45.832Z,32.44
2022-08-28T10:14:31.561Z,32.38
2022-08-28T10:17:10.295Z,32.09
2022-08-28T10:19:50.670Z,31.72
2022-08-28T10:22:44.805Z,31.39
2022-08-28T10:25:27.996Z,31.10
2022-08-28T10:28:13.109Z,30.88
2022-08-28T10:30:53.010Z,30.68
2022-08-28T10:33:44.351Z,30.66
2022-08-28T10:36:33.374Z,30.59
2022-08-28T10:39:22.807Z,31.00
2022-08-28T10:41:56.352Z,31.43
2022-08-28T10:44:32.492Z,31.84
2022-08-28T10:47:03.659Z,32.33
2022-08-28T10:49:37.015Z,32.76
2022-08-28T10:52:13.748Z,33.12
2022-08-28T10:54:48.415Z,33.43
2022-08-28T10:57:31.130Z,33.53
2022-08-28T11:00:04.785Z,33.87
2022-08-28T11:02:34.140Z,34.14
2022-08-28T11:05:04.543Z,34.12
2022-08-28T11:07:41.615Z,33.93
2022-08-28T11:10:49.749Z,33.91
2022-08-28T11:13:44.849Z,33.94
2022-08-28T11:16:19.754Z,33.92
2022-08-28T11:19:19.140Z,34.07
2022-08-28T11:21:52.566Z,34.19
2022-08-28T11:24:44.283Z,34.47
2022-08-28T11:27:25.441Z,34.63
2022-08-28T11:30:03.742Z,34.71
2022-08-28T11:32:57.474Z,34.77
2022-08-28T11:35:51.426Z,34.58
2022-08-28T11:38:55.796Z,34.42
2022-08-28T11:41:27.667Z,34.50
2022-08-28T11:44:30.310Z,34.78
2022-08-28T11:47:57.990Z,34.89
2022-08-28T11:50:31.529Z,35.25
2022-08-28T11:53:32.808Z,35.27
2022-08-28T11:56:31.799Z,35.24
2022-08-28T11:59:35.009Z,35.44
2022-08-28T12:02:56.114Z,35.35
2022-08-28T12:05:55.941Z,35.20
2022-08-28T12:09:13.551Z,35.08
2022-08-28T12:11:56.475Z,35.16
2022-08-28T12:15:14.029Z,35.28
2022-08-28T12:17:54.923Z,35.20
2022-08-28T12:20:36.115Z,34.97
2022-08-28T12:23:38.613Z,34.99
2022-08-28T12:26:12.307Z,35.21
2022-08-28T12:28:48.500Z,35.45
2022-08-28T12:32:13.033Z,35.62
2022-08-28T12:34:46.605Z,35.74
2022-08-28T12:37:52.776Z,35.88
2022-08-28T12:40:28.128Z,35.77
2022-08-28T12:43:00.469Z,35.77
2022-08-28T12:45:34.143Z,35.32
2022-08-28T12:48:10.770Z,34.53
2022-08-28T12:50:41.821Z,34.31
2022-08-28T12:53:16.611Z,34.60
2022-08-28T12:55:47.924Z,35.05
2022-08-28T12:58:30.759Z,35.14
2022-08-28T13:01:03.007Z,35.21
2022-08-28T13:03:33.647Z,35.42
2022-08-28T13:06:06.101Z,35.42
2022-08-28T13:08:36.980Z,35.48
2022-08-28T13:11:07.312Z,35.55
2022-08-28T13:13:40.210Z,35.41
2022-08-28T13:16:11.021Z,34.96
2022-08-28T13:18:52.252Z,34.01
2022-08-28T13:21:33.772Z,33.06
2022-08-28T13:24:37.523Z,32.22
2022-08-28T13:27:19.122Z,31.64
2022-08-28T13:30:00.984Z,31.22
2022-08-28T13:32:32.698Z,30.87
2022-08-28T13:35:16.881Z,30.62
2022-08-28T13:37:48.282Z,30.55
2022-08-28T13:40:53.259Z,30.43
2022-08-28T13:43:11.525Z,30.23
2022-08-28T13:45:43.013Z,30.06
2022-08-28T13:48:14.115Z,29.93
2022-08-28T13:50:47.280Z,29.85
2022-08-28T13:53:17.781Z,29.82
2022-08-28T13:55:46.929Z,29.84
2022-08-28T13:58:17.335Z,29.82
2022-08-28T14:00:47.935Z,29.77
2022-08-28T14:03:34.335Z,29.74
2022-08-28T14:06:03.792Z,29.68
2022-08-28T14:08:32.262Z,29.61
2022-08-28T14:11:01.008Z,29.56
2022-08-28T14:13:30.958Z,29.50
2022-08-28T14:15:59.805Z,29.33
2022-08-28T14:18:29.168Z,29.10
2022-08-28T14:20:58.008Z,28.87
2022-08-28T14:23:26.908Z,28.63
2022-08-28T14:25:55.159Z,28.45
2022-08-28T14:28:24.209Z,28.29
2022-08-28T14:30:54.259Z,28.12
2022-08-28T14:33:22.554Z,27.98
2022-08-28T14:35:51.559Z,27.92
2022-08-28T14:38:19.996Z,27.87
2022-08-28T14:40:49.632Z,27.82
2022-08-28T14:43:18.569Z,27.78
2022-08-28T14:45:49.633Z,27.80
2022-08-28T14:48:20.216Z,27.74
2022-08-28T14:50:50.226Z,27.66
2022-08-28T14:53:18.797Z,27.61
2022-08-28T14:55:50.606Z,27.52
2022-08-28T14:58:20.511Z,27.47
2022-08-28T15:00:51.606Z,27.42
2022-08-28T15:03:21.899Z,27.30
2022-08-28T15:06:02.430Z,27.28
2022-08-28T15:08:31.566Z,27.27
2022-08-28T15:11:00.612Z,27.21
2022-08-28T15:13:31.453Z,27.08
2022-08-28T15:16:05.017Z,26.95
2022-08-28T15:18:40.481Z,26.85
2022-08-28T15:21:16.415Z,26.70
2022-08-28T15:23:45.205Z,26.57
2022-08-28T15:26:15.482Z,26.44
2022-08-28T15:28:47.779Z,26.27
2022-08-28T15:31:17.241Z,26.14
2022-08-28T15:33:47.683Z,26.01
2022-08-28T15:36:16.679Z,25.89
2022-08-28T15:39:09.130Z,25.80
2022-08-28T15:41:38.663Z,25.69
2022-08-28T15:44:14.827Z,25.65
2022-08-28T15:46:52.375Z,25.57
2022-08-28T15:49:24.654Z,25.53
2022-08-28T15:51:53.924Z,25.49
2022-08-28T15:54:23.763Z,25.45
2022-08-28T15:56:53.845Z,25.41
2022-08-28T15:59:23.717Z,25.30
2022-08-28T16:01:54.597Z,25.21
2022-08-28T16:04:25.101Z,25.11
2022-08-28T16:06:56.558Z,25.05
2022-08-28T16:09:29.246Z,24.95
2022-08-28T16:11:58.124Z,24.90
2022-08-28T16:14:27.217Z,24.83
2022-08-28T16:16:56.557Z,24.74
2022-08-28T16:19:26.891Z,24.62
2022-08-28T16:21:55.588Z,24.49
2022-08-28T16:24:26.289Z,24.40
2022-08-28T16:26:55.136Z,24.35
2022-08-28T16:29:24.311Z,24.26
2022-08-28T16:31:53.343Z,24.14
2022-08-28T16:34:22.080Z,23.97
2022-08-28T16:36:52.127Z,23.83
2022-08-28T16:39:21.323Z,23.77
2022-08-28T16:41:51.197Z,23.72
2022-08-28T16:44:20.725Z,23.67
2022-08-28T16:46:50.405Z,23.59
2022-08-28T16:49:22.111Z,23.55
2022-08-28T16:51:54.513Z,23.49
2022-08-28T16:54:24.276Z,23.43
2022-08-28T16:56:53.642Z,23.38
2022-08-28T16:59:25.797Z,23.38
2022-08-28T17:02:00.694Z,23.30
2022-08-28T17:04:29.858Z,23.26
2022-08-28T17:07:04.305Z,23.23
2022-08-28T17:09:37.240Z,23.16
2022-08-28T17:12:07.721Z,23.08
2022-08-28T17:14:40.453Z,23.01
2022-08-28T17:17:14.556Z,22.95
2022-08-28T17:19:43.908Z,22.84
2022-08-28T17:22:34.632Z,22.72
2022-08-28T17:25:07.890Z,22.57
2022-08-28T17:27:42.892Z,22.38
2022-08-28T17:30:13.028Z,22.23
2022-08-28T17:32:46.745Z,22.11
2022-08-28T17:35:16.461Z,22.07
2022-08-28T17:37:47.232Z,21.96
2022-08-28T17:40:18.550Z,21.94
2022-08-28T17:42:48.928Z,21.89
2022-08-28T17:45:17.801Z,21.85
2022-08-28T17:47:50.939Z,21.82
2022-08-28T17:50:19.942Z,21.74
2022-08-28T17:52:51.695Z,21.69
2022-08-28T17:55:21.259Z,21.61
2022-08-28T17:57:53.257Z,21.56
2022-08-28T18:00:26.990Z,21.47
2022-08-28T18:02:56.074Z,21.39
2022-08-28T18:05:26.804Z,21.31
2022-08-28T18:07:56.818Z,21.27
2022-08-28T18:10:26.426Z,21.26
2022-08-28T18:12:56.178Z,21.24
2022-08-28T18:15:25.231Z,21.23
2022-08-28T18:17:54.587Z,21.23
2022-08-28T18:20:23.911Z,21.21
2022-08-28T18:22:53.515Z,21.18
2022-08-28T18:25:47.296Z,21.17
2022-08-28T18:28:22.510Z,21.11
2022-08-28T18:30:52.885Z,21.05
2022-08-28T18:33:24.287Z,21.07
2022-08-28T18:35:53.593Z,21.03
2022-08-28T18:38:25.936Z,20.99
2022-08-28T18:40:56.685Z,20.94
2022-08-28T18:43:25.743Z,20.93
2022-08-28T18:45:55.531Z,20.91
2022-08-28T18:48:24.539Z,20.89
2022-08-28T18:50:53.371Z,20.87
2022-08-28T18:53:24.512Z,20.87
2022-08-28T18:55:55.095Z,20.88
2022-08-28T18:58:27.839Z,20.88
2022-08-28T19:00:56.961Z,20.88
2022-08-28T19:03:25.861Z,20.85
2022-08-28T19:05:56.267Z,20.79
2022-08-28T19:08:25.280Z,20.71
2022-08-28T19:10:56.820Z,20.70
2022-08-28T19:13:28.244Z,20.68
2022-08-28T19:15:57.123Z,20.68
2022-08-28T19:18:26.180Z,20.68
2022-08-28T19:21:04.532Z,20.67
2022-08-28T19:23:34.100Z,20.66
2022-08-28T19:26:02.899Z,20.64
2022-08-28T19:28:33.306Z,20.57
2022-08-28T19:31:03.022Z,20.52
2022-08-28T19:33:31.860Z,20.49
2022-08-28T19:36:01.229Z,20.45
2022-08-28T19:38:31.384Z,20.41
2022-08-28T19:41:00.187Z,20.39
2022-08-28T19:43:42.562Z,20.36
2022-08-28T19:46:19.851Z,20.30
2022-08-28T19:48:49.682Z,20.32
2022-08-28T19:51:23.480Z,20.28
2022-08-28T19:53:57.857Z,20.28
2022-08-28T19:56:28.735Z,20.23
2022-08-28T19:59:02.132Z,20.19
2022-08-28T20:01:35.486Z,20.21
2022-08-28T20:04:05.351Z,20.23
2022-08-28T20:06:36.206Z,20.25
2022-08-28T20:09:09.419Z,20.20
2022-08-28T20:11:42.311Z,20.17
2022-08-28T20:14:11.154Z,20.22
2022-08-28T20:16:44.250Z,20.26
2022-08-28T20:19:18.919Z,20.29
2022-08-28T20:21:50.145Z,20.27
2022-08-28T20:24:22.238Z,20.23
2022-08-28T20:26:51.789Z,20.18
2022-08-28T20:29:21.945Z,20.16
2022-08-28T20:31:53.039Z,20.14
2022-08-28T20:34:22.602Z,20.13
2022-08-28T20:36:52.230Z,20.14
2022-08-28T20:39:24.163Z,20.14
2022-08-28T20:41:53.855Z,20.14
2022-08-28T20:44:23.899Z,20.15
2022-08-28T20:46:55.479Z,20.14
2022-08-28T20:49:25.259Z,20.12
2022-08-28T20:51:57.010Z,20.09
2022-08-28T20:54:30.600Z,20.06
2022-08-28T20:57:03.177Z,20.06
2022-08-28T20:59:39.603Z,20.06
2022-08-28T21:02:13.726Z,20.03
2022-08-28T21:04:45.816Z,20.00
2022-08-28T21:07:15.334Z,19.97
2022-08-28T21:10:06.261Z,19.93
2022-08-28T21:12:38.428Z,19.89
2022-08-28T21:15:09.553Z,19.88
2022-08-28T21:17:40.914Z,19.85
2022-08-28T21:20:12.726Z,19.84
2022-08-28T21:22:44.712Z,19.87
2022-08-28T21:25:15.005Z,19.87
2022-08-28T21:27:45.552Z,19.87
2022-08-28T21:30:18.253Z,19.83
2022-08-28T21:32:51.148Z,19.81
2022-08-28T21:35:21.958Z,19.78
2022-08-28T21:37:51.396Z,19.76
2022-08-28T21:40:20.839Z,19.68
2022-08-28T21:42:49.581Z,19.65
2022-08-28T21:45:18.642Z,19.62
2022-08-28T21:47:49.529Z,19.59
2022-08-28T21:50:18.933Z,19.57
2022-08-28T21:52:50.645Z,19.56
2022-08-28T21:55:19.574Z,19.55
2022-08-28T21:57:48.603Z,19.54
2022-08-28T22:00:21.142Z,19.54
2022-08-28T22:02:51.552Z,19.55
2022-08-28T22:05:20.559Z,19.53
2022-08-28T22:07:48.926Z,19.52
2022-08-28T22:10:18.009Z,19.49
2022-08-28T22:12:46.619Z,19.45
2022-08-28T22:15:15.730Z,19.41
2022-08-28T22:17:44.640Z,19.35
2022-08-28T22:20:14.631Z,19.28
2022-08-28T22:23:01.027Z,19.24
2022-08-28T22:25:29.716Z,19.22
2022-08-28T22:27:58.462Z,19.24
2022-08-28T22:30:27.649Z,19.28
2022-08-28T22:32:56.179Z,19.27
2022-08-28T22:35:26.435Z,19.28
2022-08-28T22:37:55.250Z,19.27
2022-08-28T22:40:25.535Z,19.27
2022-08-28T22:42:54.434Z,19.27
2022-08-28T22:45:23.386Z,19.29
2022-08-28T22:47:52.156Z,19.31
2022-08-28T22:50:20.912Z,19.31
2022-08-28T22:52:52.139Z,19.30
2022-08-28T22:55:22.512Z,19.29
2022-08-28T22:57:51.498Z,19.31
2022-08-28T23:00:24.116Z,19.32
2022-08-28T23:02:54.483Z,19.34
2022-08-28T23:05:24.829Z,19.36
2022-08-28T23:07:54.734Z,19.40
2022-08-28T23:10:42.114Z,19.40
2022-08-28T23:13:14.376Z,19.43
2022-08-28T23:15:44.220Z,19.44
2022-08-28T23:18:13.117Z,19.50
2022-08-28T23:20:42.647Z,19.53
2022-08-28T23:23:14.477Z,19.61
2022-08-28T23:25:44.040Z,19.61
2022-08-28T23:28:12.918Z,19.58
2022-08-28T23:30:44.055Z,19.57
2022-08-28T23:33:24.072Z,19.59
2022-08-28T23:35:54.058Z,19.61
2022-08-28T23:38:24.482Z,19.63
2022-08-28T23:40:55.701Z,19.65
2022-08-28T23:43:26.535Z,19.69
2022-08-28T23:45:55.793Z,19.72
2022-08-28T23:48:25.663Z,19.75
2022-08-28T23:50:55.281Z,19.77
2022-08-28T23:53:25.964Z,19.78
2022-08-28T23:55:56.887Z,19.82
2022-08-28T23:58:31.703Z,19.82
